Time;durP1;ratioP1;P1;durP2;ratioP2;P2;SDS_P1;SDS_P2;PMS_P1;PMS_P2;Temp;Humidity;BMP_temperature;BMP_pressure;BME280_temperature;BME280_humidity;BME280_pressure;Samples;Min_cycle;Max_cycle;Signal;HPM_P1;HPM_P2
2023/02/17 00:00:12;;;;;;;4.70;4.07;;;12.30;99.90;;;;;;5147897;23;20597;-93
2023/02/17 00:02:14;;;;;;;6.53;4.47;;;12.30;99.90;;;;;;5150824;23;20170;-89
2023/02/17 00:04:15;;;;;;;8.30;4.88;;;12.30;99.90;;;;;;5122675;23;20148;-94
2023/02/17 00:06:19;;;;;;;7.10;4.90;;;12.40;99.90;;;;;;5122923;23;20190;-92
2023/02/17 00:08:20;;;;;;;5.97;4.30;;;12.40;99.90;;;;;;5125345;23;20599;-95
2023/02/17 00:10:20;;;;;;;5.95;4.50;;;12.30;99.90;;;;;;5124058;23;20626;-94
2023/02/17 00:12:21;;;;;;;5.22;4.10;;;12.30;99.90;;;;;;5126038;23;20211;-88
2023/02/17 00:14:21;;;;;;;5.43;3.67;;;12.40;99.90;;;;;;5126007;23;20504;-95
2023/02/17 00:16:24;;;;;;;5.95;3.58;;;12.20;99.90;;;;;;5125649;23;20238;-89
2023/02/17 00:18:25;;;;;;;5.70;3.38;;;12.20;99.90;;;;;;5125592;23;20572;-95
2023/02/17 00:20:29;;;;;;;6.55;3.70;;;12.20;99.90;;;;;;5126604;23;20260;-90
2023/02/17 00:22:29;;;;;;;4.35;3.35;;;12.20;99.90;;;;;;5157695;23;20160;-93
2023/02/17 00:24:33;;;;;;;5.22;2.88;;;12.20;99.90;;;;;;5129701;23;20151;-92
2023/02/17 00:26:33;;;;;;;4.50;2.90;;;12.30;99.90;;;;;;5127242;23;20207;-89
2023/02/17 00:28:34;;;;;;;6.93;3.17;;;12.30;99.90;;;;;;5124471;23;20148;-89
2023/02/17 00:30:37;;;;;;;5.15;3.38;;;12.20;99.90;;;;;;5127493;23;20148;-89
2023/02/17 00:32:37;;;;;;;3.65;3.20;;;12.10;99.90;;;;;;5124937;23;20184;-88
2023/02/17 00:34:38;;;;;;;7.47;3.13;;;12.10;99.90;;;;;;5149493;23;20186;-90
2023/02/17 00:36:39;;;;;;;7.22;3.28;;;12.20;99.90;;;;;;5151711;23;20156;-90
2023/02/17 00:38:40;;;;;;;5.10;3.42;;;12.10;99.90;;;;;;5127389;23;20149;-89
2023/02/17 00:40:41;;;;;;;6.60;3.47;;;12.10;99.90;;;;;;5127709;23;20241;-89
2023/02/17 00:42:42;;;;;;;5.82;3.40;;;12.20;99.90;;;;;;5125919;23;20161;-89
2023/02/17 00:44:42;;;;;;;6.93;3.72;;;12.10;99.90;;;;;;5125610;23;20132;-89
2023/02/17 00:46:45;;;;;;;5.10;3.35;;;12.10;99.90;;;;;;5126061;23;20147;-89
2023/02/17 00:48:48;;;;;;;6.18;3.20;;;12.00;99.90;;;;;;5125770;23;20196;-88
2023/02/17 00:50:49;;;;;;;9.43;3.90;;;12.00;99.90;;;;;;5127458;23;20148;-89
2023/02/17 00:52:51;;;;;;;4.90;3.38;;;12.00;99.90;;;;;;5102052;23;20508;-94
2023/02/17 00:54:52;;;;;;;5.00;3.22;;;12.10;99.90;;;;;;5127136;23;20192;-90
2023/02/17 00:56:52;;;;;;;6.80;3.63;;;12.30;99.90;;;;;;5126053;23;20160;-89
2023/02/17 00:58:53;;;;;;;7.57;3.47;;;12.30;99.90;;;;;;5151657;23;20210;-90
2023/02/17 01:00:55;;;;;;;6.18;3.10;;;12.10;99.90;;;;;;5127726;23;20168;-96
2023/02/17 01:02:55;;;;;;;11.93;3.67;;;12.10;99.90;;;;;;5128073;23;20132;-89
2023/02/17 01:04:57;;;;;;;7.00;3.05;;;12.10;99.90;;;;;;5126641;23;20140;-89
2023/02/17 01:06:57;;;;;;;3.92;2.75;;;12.10;99.90;;;;;;5127997;23;20132;-95
2023/02/17 01:08:58;;;;;;;7.30;3.25;;;12.10;99.90;;;;;;5121620;23;20654;-89
2023/02/17 01:11:00;;;;;;;9.27;3.10;;;12.20;99.90;;;;;;5151732;23;20136;-94
2023/02/17 01:13:01;;;;;;;5.70;2.80;;;12.20;99.90;;;;;;5149913;23;20162;-89
2023/02/17 01:15:02;;;;;;;4.25;2.67;;;12.20;99.90;;;;;;5124126;23;20155;-94
2023/02/17 01:17:02;;;;;;;7.28;2.70;;;12.20;99.90;;;;;;5129704;23;20598;-91
2023/02/17 01:19:06;;;;;;;4.28;2.53;;;12.20;99.90;;;;;;5128282;23;20168;-96
2023/02/17 01:21:15;;;;;;;3.80;2.40;;;12.10;99.90;;;;;;5154864;23;20152;-94
2023/02/17 01:23:16;;;;;;;4.38;2.00;;;12.10;99.90;;;;;;5122076;23;20471;-89
2023/02/17 01:25:17;;;;;;;3.97;2.17;;;12.00;99.90;;;;;;5147935;23;20239;-89
2023/02/17 01:27:17;;;;;;;4.93;2.13;;;12.00;99.90;;;;;;5127748;23;20156;-94
2023/02/17 01:29:18;;;;;;;2.53;1.60;;;11.90;99.90;;;;;;5127683;23;20160;-89
2023/02/17 01:31:21;;;;;;;4.03;1.50;;;11.80;99.90;;;;;;5123782;23;20187;-92
2023/02/17 01:33:22;;;;;;;3.65;1.48;;;11.60;99.90;;;;;;5123372;23;20156;-94
2023/02/17 01:35:23;;;;;;;3.95;1.60;;;11.50;99.90;;;;;;5129580;23;20152;-91
2023/02/17 01:37:24;;;;;;;3.30;1.50;;;11.50;99.90;;;;;;5154162;23;20164;-90
2023/02/17 01:39:24;;;;;;;3.97;1.75;;;11.50;99.90;;;;;;5127330;23;20200;-89
2023/02/17 01:41:26;;;;;;;2.72;1.70;;;11.50;99.90;;;;;;5126105;23;20465;-92
2023/02/17 01:43:28;;;;;;;8.05;1.90;;;11.50;99.90;;;;;;5122479;23;20156;-89
2023/02/17 01:45:39;;;;;;;2.15;1.70;;;11.50;99.90;;;;;;5126004;23;20595;-89
2023/02/17 01:47:40;;;;;;;4.03;2.03;;;11.60;99.90;;;;;;5123007;23;20156;-89
2023/02/17 01:49:40;;;;;;;4.70;2.00;;;11.70;99.90;;;;;;5147592;23;20174;-90
2023/02/17 01:51:42;;;;;;;6.30;2.50;;;11.70;99.90;;;;;;5124552;23;20228;-92
2023/02/17 01:53:55;;;;;;;4.53;2.22;;;11.70;99.90;;;;;;5125365;23;20574;-89
2023/02/17 01:55:56;;;;;;;4.05;2.22;;;11.90;99.90;;;;;;5128168;23;20211;-89
2023/02/17 01:58:01;;;;;;;5.15;2.47;;;11.90;99.90;;;;;;5129401;23;20148;-95
2023/02/17 02:00:04;;;;;;;6.57;2.53;;;12.00;99.90;;;;;;5127275;23;20180;-96
2023/02/17 02:02:13;;;;;;;6.20;2.63;;;12.00;99.90;;;;;;5128459;23;20155;-88
2023/02/17 02:04:19;;;;;;;7.53;2.80;;;11.90;99.90;;;;;;5150358;23;20155;-89
2023/02/17 02:06:24;;;;;;;6.80;3.00;;;11.70;99.90;;;;;;5126659;23;20152;-88
2023/02/17 02:08:27;;;;;;;7.07;2.80;;;11.70;99.90;;;;;;5125858;23;20171;-88
2023/02/17 02:10:28;;;;;;;4.95;2.83;;;11.60;99.90;;;;;;5150624;23;20151;-88
2023/02/17 02:12:33;;;;;;;7.53;3.17;;;11.60;99.90;;;;;;5154198;23;20187;-89
2023/02/17 02:14:35;;;;;;;7.68;3.95;;;11.60;99.90;;;;;;5127298;23;20148;-89
2023/02/17 02:16:59;;;;;;;5.13;3.15;;;11.60;99.90;;;;;;5151146;23;20210;-88
2023/02/17 02:19:22;;;;;;;7.78;4.30;;;11.50;99.90;;;;;;5152786;23;20182;-90
2023/02/17 02:21:53;;;;;;;9.52;4.95;;;11.50;99.90;;;;;;5150232;23;20167;-90
2023/02/17 02:24:26;;;;;;;11.55;4.82;;;11.50;99.90;;;;;;5152783;23;20594;-93
2023/02/17 02:26:58;;;;;;;5.82;4.18;;;11.50;99.90;;;;;;5144385;23;20214;-94
2023/02/17 02:29:23;;;;;;;7.70;4.43;;;11.60;99.90;;;;;;5126856;23;20176;-89
2023/02/17 02:31:57;;;;;;;7.13;4.25;;;11.60;99.90;;;;;;5125383;23;20271;-88
2023/02/17 02:34:17;;;;;;;6.68;4.07;;;11.50;99.90;;;;;;5124878;23;20156;-94
2023/02/17 02:36:31;;;;;;;6.80;4.13;;;11.60;99.90;;;;;;5128266;23;20152;-95
2023/02/17 02:38:44;;;;;;;9.68;5.25;;;11.50;99.90;;;;;;5149867;23;20601;-89
2023/02/17 02:40:56;;;;;;;9.75;5.05;;;11.50;99.90;;;;;;5125279;23;20144;-94
2023/02/17 02:42:59;;;;;;;12.02;6.90;;;11.60;99.90;;;;;;5125908;23;20148;-94
2023/02/17 02:45:00;;;;;;;10.27;6.28;;;11.70;99.90;;;;;;5125599;23;20178;-95
2023/02/17 02:47:25;;;;;;;11.05;7.25;;;11.70;99.90;;;;;;5150229;23;20158;-89
2023/02/17 02:49:27;;;;;;;14.43;7.47;;;11.80;99.90;;;;;;5125262;23;20261;-90
2023/02/17 02:51:58;;;;;;;12.88;8.75;;;11.80;99.90;;;;;;5125342;23;20188;-89
2023/02/17 02:54:37;;;;;;;12.20;8.43;;;11.90;99.90;;;;;;5149212;23;20235;-94
2023/02/17 02:57:11;;;;;;;15.43;10.18;;;11.70;99.90;;;;;;5052555;23;20154;-89
2023/02/17 02:59:48;;;;;;;17.17;8.32;;;11.60;99.90;;;;;;5030109;23;20190;-90
2023/02/17 03:02:21;;;;;;;13.38;8.20;;;11.60;99.90;;;;;;5073496;23;20175;-93
2023/02/17 03:04:36;;;;;;;16.90;8.90;;;11.70;99.90;;;;;;5121998;22;20283;-93
2023/02/17 03:07:02;;;;;;;12.13;7.63;;;11.70;99.90;;;;;;5119463;23;20148;-92
2023/02/17 03:09:26;;;;;;;11.80;6.53;;;11.60;99.90;;;;;;5135427;23;20172;-92
2023/02/17 03:11:31;;;;;;;12.68;7.35;;;11.50;99.90;;;;;;5143730;23;20541;-93
2023/02/17 03:13:38;;;;;;;12.80;7.13;;;11.60;99.90;;;;;;5094451;23;20499;-91
2023/02/17 03:15:40;;;;;;;12.35;7.63;;;11.70;99.90;;;;;;5094674;23;20205;-92
2023/02/17 03:17:41;;;;;;;10.13;6.88;;;11.70;99.90;;;;;;5119015;23;20176;-92
2023/02/17 03:19:44;;;;;;;15.63;7.30;;;11.70;99.90;;;;;;5093897;23;20232;-91
2023/02/17 03:22:14;;;;;;;14.32;7.18;;;11.60;99.90;;;;;;5119259;23;20708;-92
2023/02/17 03:24:16;;;;;;;13.15;7.20;;;11.60;99.90;;;;;;5119050;23;20227;-92
2023/02/17 03:26:17;;;;;;;14.77;6.78;;;11.60;99.90;;;;;;5144546;23;20184;-92
2023/02/17 03:28:19;;;;;;;13.43;7.20;;;11.60;99.90;;;;;;5095042;23;20149;-93
2023/02/17 03:30:21;;;;;;;15.98;6.88;;;11.70;99.90;;;;;;5118888;23;20179;-91
2023/02/17 03:32:22;;;;;;;15.27;7.65;;;11.60;99.90;;;;;;5118635;23;20188;-92
2023/02/17 03:34:23;;;;;;;12.18;7.57;;;11.80;99.90;;;;;;5094201;23;20157;-94
2023/02/17 03:36:24;;;;;;;16.00;7.80;;;11.70;99.90;;;;;;5094138;23;20583;-93
2023/02/17 03:38:25;;;;;;;10.80;7.38;;;11.80;99.90;;;;;;5118701;23;20157;-93
2023/02/17 03:40:25;;;;;;;12.27;8.27;;;11.90;99.90;;;;;;5094139;23;20612;-92
2023/02/17 03:42:26;;;;;;;12.32;7.60;;;11.80;99.90;;;;;;5118697;23;20148;-94
2023/02/17 03:44:27;;;;;;;15.43;8.50;;;11.90;99.90;;;;;;5118734;23;20156;-92
2023/02/17 03:46:28;;;;;;;12.45;7.78;;;11.80;99.90;;;;;;5118900;23;20175;-95
2023/02/17 03:48:29;;;;;;;13.93;7.60;;;11.80;99.90;;;;;;5094279;23;20165;-92
2023/02/17 03:50:30;;;;;;;12.55;7.57;;;11.70;99.90;;;;;;5118708;23;20149;-93
2023/02/17 03:52:30;;;;;;;14.25;7.88;;;11.60;99.90;;;;;;5118881;23;20581;-94
2023/02/17 03:54:31;;;;;;;14.88;8.02;;;11.50;99.90;;;;;;5094172;23;20149;-93
2023/02/17 03:56:32;;;;;;;16.83;8.00;;;11.50;99.90;;;;;;5094370;23;20153;-93
2023/02/17 03:58:33;;;;;;;12.20;7.32;;;11.60;99.90;;;;;;5094141;23;20515;-93
2023/02/17 04:00:34;;;;;;;18.77;8.65;;;11.60;99.90;;;;;;5118665;23;20152;-93
2023/02/17 04:02:35;;;;;;;16.02;8.40;;;11.70;99.90;;;;;;5094503;23;20160;-91
2023/02/17 04:04:36;;;;;;;16.35;8.82;;;11.60;99.90;;;;;;5094270;23;20196;-93
2023/02/17 04:06:37;;;;;;;14.70;8.00;;;11.60;99.90;;;;;;5143722;23;20586;-92
2023/02/17 04:08:38;;;;;;;13.75;7.70;;;11.60;99.90;;;;;;5120478;23;20179;-92
2023/02/17 04:11:01;;;;;;;13.63;7.53;;;11.70;99.90;;;;;;5119603;23;20156;-94
2023/02/17 04:13:09;;;;;;;14.65;8.00;;;11.70;99.90;;;;;;5120526;23;20168;-94
2023/02/17 04:15:28;;;;;;;14.65;8.23;;;11.60;99.90;;;;;;5142653;23;20222;-94
2023/02/17 04:17:31;;;;;;;19.20;8.35;;;11.40;99.90;;;;;;5092225;23;20152;-94
2023/02/17 04:19:35;;;;;;;18.88;8.95;;;11.50;99.90;;;;;;5119858;23;20544;-95
2023/02/17 04:21:36;;;;;;;17.30;9.50;;;11.50;99.90;;;;;;5094304;23;20153;-93
2023/02/17 04:23:39;;;;;;;15.45;9.57;;;11.60;99.90;;;;;;5119237;23;20578;-94
2023/02/17 04:25:47;;;;;;;15.93;9.02;;;11.70;99.90;;;;;;5120350;23;20243;-94
2023/02/17 04:27:48;;;;;;;15.43;9.55;;;11.60;99.90;;;;;;5119292;23;20183;-93
2023/02/17 04:29:51;;;;;;;17.75;9.65;;;11.60;99.90;;;;;;5094285;23;20176;-94
2023/02/17 04:31:56;;;;;;;18.50;9.18;;;11.70;99.90;;;;;;5118869;23;20274;-96
2023/02/17 04:34:01;;;;;;;14.68;8.98;;;11.50;99.90;;;;;;5119063;23;20610;-94
2023/02/17 04:36:12;;;;;;;16.75;9.48;;;11.30;99.90;;;;;;5119809;23;20490;-95
2023/02/17 04:41:35;;;;;;;17.80;10.15;;;11.60;99.90;;;;;;5144543;23;20170;-94
2023/02/17 04:44:28;;;;;;;18.80;9.35;;;11.60;99.90;;;;;;5119259;23;20160;-95
2023/02/17 04:46:32;;;;;;;17.80;8.45;;;11.40;99.90;;;;;;5103783;23;20153;-93
2023/02/17 04:48:59;;;;;;;14.88;8.82;;;11.50;99.90;;;;;;5119166;23;20178;-94
2023/02/17 04:51:09;;;;;;;15.15;8.50;;;11.50;99.90;;;;;;5095491;23;20162;-95
2023/02/17 04:53:35;;;;;;;17.38;8.93;;;11.50;99.90;;;;;;5095951;23;20195;-93
2023/02/17 04:55:50;;;;;;;15.52;8.18;;;11.50;99.90;;;;;;5118936;23;20175;-93
2023/02/17 04:58:26;;;;;;;13.07;7.00;;;11.60;99.90;;;;;;5119019;23;20290;-94
2023/02/17 05:00:53;;;;;;;14.43;7.07;;;11.50;99.90;;;;;;5145452;23;20143;-94
2023/02/17 05:02:57;;;;;;;14.90;6.97;;;11.50;99.90;;;;;;5143849;23;20155;-95
2023/02/17 05:05:36;;;;;;;15.13;6.95;;;11.60;99.90;;;;;;5125967;23;20623;-95
2023/02/17 05:08:00;;;;;;;17.42;7.97;;;11.70;99.90;;;;;;5151345;23;20151;-92
2023/02/17 05:11:01;;;;;;;;;;;;;;;;;;;;;
2023/02/17 05:13:34;;;;;;;12.98;6.70;;;11.50;99.90;;;;;;5153329;23;20175;-96
2023/02/17 05:18:51;;;;;;;16.35;8.38;;;11.30;99.90;;;;;;5115845;23;20152;-95
2023/02/17 05:21:33;;;;;;;16.88;8.00;;;11.40;99.90;;;;;;5130351;23;20151;-94
2023/02/17 05:23:55;;;;;;;17.45;8.45;;;11.40;99.90;;;;;;5106253;23;20153;-94
2023/02/17 05:26:25;;;;;;;17.60;9.57;;;11.50;99.90;;;;;;5130586;23;20183;-94
2023/02/17 05:28:38;;;;;;;18.67;8.98;;;11.30;99.90;;;;;;5128728;23;20144;-94
2023/02/17 05:30:57;;;;;;;15.48;8.07;;;11.40;99.90;;;;;;5130195;23;20215;-95
2023/02/17 05:33:58;;;;;;;13.52;7.32;;;11.40;99.90;;;;;;5154014;23;20753;-94
2023/02/17 05:36:45;;;;;;;16.58;8.40;;;11.30;99.90;;;;;;5131139;23;20144;-94
2023/02/17 05:38:52;;;;;;;12.77;6.55;;;11.50;99.90;;;;;;5065446;23;20184;-93
2023/02/17 05:41:40;;;;;;;17.48;7.75;;;11.50;99.90;;;;;;5130064;23;20641;-95
2023/02/17 05:44:28;;;;;;;19.17;7.68;;;11.50;99.90;;;;;;5123595;23;20159;-95
2023/02/17 05:49:24;;;;;;;14.50;8.15;;;11.50;99.90;;;;;;5117656;23;20184;-94
2023/02/17 05:52:10;;;;;;;16.77;8.13;;;11.50;99.90;;;;;;5095941;23;20197;-94
2023/02/17 05:54:36;;;;;;;15.93;8.52;;;11.40;99.90;;;;;;5094078;23;20512;-94
2023/02/17 05:59:19;;;;;;;14.88;7.00;;;11.60;99.90;;;;;;5095914;23;20168;-93
2023/02/17 06:02:20;;;;;;;15.63;7.40;;;11.30;99.90;;;;;;5146276;23;20150;-92
2023/02/17 06:04:28;;;;;;;12.43;5.45;;;11.40;99.90;;;;;;5021074;23;20250;-94
2023/02/17 06:06:32;;;;;;;12.80;6.03;;;11.40;99.90;;;;;;5079317;23;20159;-93
2023/02/17 06:08:34;;;;;;;12.23;6.05;;;11.40;99.90;;;;;;5093879;23;20160;-92
2023/02/17 06:10:40;;;;;;;16.23;7.45;;;11.30;99.90;;;;;;5094123;23;20152;-95
2023/02/17 06:12:50;;;;;;;14.43;6.38;;;11.30;99.90;;;;;;5095247;23;20244;-93
2023/02/17 06:14:50;;;;;;;12.18;6.15;;;11.30;99.90;;;;;;5117830;23;20610;-93
2023/02/17 06:16:59;;;;;;;16.33;6.35;;;11.30;99.90;;;;;;5118678;23;20540;-93
2023/02/17 06:19:08;;;;;;;13.82;6.60;;;11.30;99.90;;;;;;5118168;23;20172;-92
2023/02/17 06:21:19;;;;;;;12.73;6.13;;;11.20;99.90;;;;;;5096334;23;20153;-93
2023/02/17 06:23:20;;;;;;;15.82;7.28;;;11.10;99.90;;;;;;5118539;23;20523;-94
2023/02/17 06:25:20;;;;;;;11.27;6.00;;;11.20;99.90;;;;;;5094231;23;20536;-93
2023/02/17 06:27:21;;;;;;;18.35;6.47;;;11.20;99.90;;;;;;5118194;23;20239;-94
2023/02/17 06:29:22;;;;;;;13.07;6.25;;;11.10;99.90;;;;;;5094038;23;20173;-92
2023/02/17 06:31:23;;;;;;;12.75;6.00;;;11.20;99.90;;;;;;5118838;23;20615;-94
2023/02/17 06:33:24;;;;;;;14.50;5.85;;;11.30;99.90;;;;;;5118696;23;20164;-92
2023/02/17 06:35:25;;;;;;;11.65;5.78;;;11.20;99.90;;;;;;5094354;23;20599;-92
2023/02/17 06:37:27;;;;;;;13.95;6.32;;;11.40;99.90;;;;;;5093856;23;20209;-92
2023/02/17 06:39:29;;;;;;;15.00;6.18;;;11.30;99.90;;;;;;5094177;23;20247;-93
2023/02/17 06:41:29;;;;;;;14.70;6.70;;;11.30;99.90;;;;;;5144033;23;20152;-93
2023/02/17 06:43:30;;;;;;;14.85;6.55;;;11.40;99.90;;;;;;5120381;23;20235;-92
2023/02/17 06:45:31;;;;;;;12.48;7.03;;;11.50;99.90;;;;;;5095469;23;20160;-94
2023/02/17 06:47:32;;;;;;;11.77;6.85;;;11.40;99.90;;;;;;5120222;23;20403;-93
2023/02/17 06:49:33;;;;;;;12.27;6.78;;;11.50;99.90;;;;;;5095705;23;20169;-94
2023/02/17 06:51:34;;;;;;;15.45;8.15;;;11.50;99.90;;;;;;5119891;23;20206;-94
2023/02/17 06:53:37;;;;;;;14.40;7.95;;;11.40;99.90;;;;;;5095221;23;20157;-93
2023/02/17 06:55:42;;;;;;;13.55;7.20;;;11.40;99.90;;;;;;5095078;23;20149;-94
2023/02/17 06:57:43;;;;;;;17.60;7.38;;;11.40;99.90;;;;;;5120572;23;20160;-93
2023/02/17 06:59:44;;;;;;;11.70;7.15;;;11.40;99.90;;;;;;5144275;23;20174;-94
2023/02/17 07:01:48;;;;;;;14.05;7.82;;;11.40;99.90;;;;;;5144852;23;20147;-94
2023/02/17 07:03:50;;;;;;;17.73;7.78;;;11.50;99.90;;;;;;5120000;23;20156;-93
2023/02/17 07:05:59;;;;;;;14.40;7.72;;;11.60;99.90;;;;;;5120838;23;20228;-94
2023/02/17 07:08:01;;;;;;;12.35;7.25;;;11.40;99.90;;;;;;5095598;23;20157;-93
2023/02/17 07:10:09;;;;;;;14.40;7.35;;;11.50;99.90;;;;;;5095485;23;20500;-95
2023/02/17 07:12:10;;;;;;;13.05;7.60;;;11.60;99.90;;;;;;5095733;23;20188;-93
2023/02/17 07:14:15;;;;;;;13.35;7.43;;;11.70;99.90;;;;;;5094987;23;20555;-93
2023/02/17 07:16:16;;;;;;;14.85;8.00;;;11.70;99.90;;;;;;5144973;23;20151;-92
2023/02/17 07:18:17;;;;;;;18.83;7.97;;;11.70;99.90;;;;;;5121168;23;20152;-95
2023/02/17 07:20:23;;;;;;;17.13;7.72;;;11.80;99.90;;;;;;5095941;23;20153;-93
2023/02/17 07:22:25;;;;;;;14.07;7.70;;;11.60;99.90;;;;;;5119787;23;20255;-93
2023/02/17 07:24:36;;;;;;;;;;;;;;;;;;;;;
2023/02/17 07:26:44;;;;;;;11.80;6.85;;;11.60;99.90;;;;;;5120373;23;20587;-94
2023/02/17 07:28:45;;;;;;;13.63;7.95;;;11.60;99.90;;;;;;5119774;23;20179;-93
2023/02/17 07:30:47;;;;;;;12.68;7.55;;;11.60;99.90;;;;;;5104840;23;20137;-94
2023/02/17 07:32:51;;;;;;;13.40;8.10;;;11.60;99.90;;;;;;5162129;23;20183;-94
2023/02/17 07:34:56;;;;;;;14.38;8.25;;;11.50;99.90;;;;;;5142594;23;20530;-94
2023/02/17 07:36:57;;;;;;;15.05;7.90;;;11.60;99.90;;;;;;5110009;23;20160;-94
2023/02/17 07:38:58;;;;;;;14.75;8.32;;;11.70;99.90;;;;;;5123995;23;20279;-93
2023/02/17 07:41:30;;;;;;;14.20;7.95;;;11.80;99.90;;;;;;5126355;23;20156;-93
2023/02/17 07:43:31;;;;;;;17.52;8.43;;;11.70;99.90;;;;;;5148433;23;20152;-92
2023/02/17 07:45:33;;;;;;;14.30;8.63;;;11.90;99.90;;;;;;5098490;23;20153;-92
2023/02/17 07:47:42;;;;;;;14.57;8.85;;;11.80;99.90;;;;;;5123783;23;20148;-95
2023/02/17 07:49:43;;;;;;;13.20;7.88;;;11.80;99.90;;;;;;5097971;23;20186;-92
2023/02/17 07:51:49;;;;;;;14.57;8.05;;;11.80;99.90;;;;;;5098902;23;20172;-93
2023/02/17 07:53:50;;;;;;;15.38;8.43;;;11.70;99.90;;;;;;5125634;23;20152;-93
2023/02/17 07:55:51;;;;;;;16.42;8.88;;;11.70;99.90;;;;;;5124708;23;20152;-93
2023/02/17 07:57:53;;;;;;;17.85;8.88;;;11.80;99.90;;;;;;5100081;23;20160;-93
2023/02/17 07:59:57;;;;;;;12.30;7.88;;;11.90;99.90;;;;;;5123376;23;20172;-94
2023/02/17 08:01:58;;;;;;;13.73;8.68;;;11.90;99.90;;;;;;5123673;23;20157;-94
2023/02/17 08:03:59;;;;;;;15.05;8.15;;;12.00;99.90;;;;;;5099222;23;20219;-94
2023/02/17 08:06:01;;;;;;;17.05;7.78;;;12.00;99.90;;;;;;5125461;23;20211;-93
2023/02/17 08:15:10;;;;;;;10.90;7.35;;;12.10;99.90;;;;;;5149422;23;20143;-95
2023/02/17 08:17:14;;;;;;;11.88;7.38;;;12.30;99.90;;;;;;5125107;23;20152;-95
2023/02/17 08:19:35;;;;;;;11.52;7.63;;;12.30;99.90;;;;;;5100155;23;20232;-93
2023/02/17 08:21:48;;;;;;;9.98;7.03;;;12.30;99.90;;;;;;5124896;23;20223;-93
2023/02/17 08:23:53;;;;;;;11.07;7.22;;;12.40;99.90;;;;;;5123973;23;20600;-92
2023/02/17 08:26:20;;;;;;;8.43;5.78;;;12.40;99.90;;;;;;5129456;23;20622;-93
2023/02/17 08:28:21;;;;;;;11.50;5.63;;;12.30;99.90;;;;;;5098863;23;20168;-95
2023/02/17 08:30:37;;;;;;;9.90;6.07;;;12.20;99.90;;;;;;5097609;23;20207;-93
2023/02/17 08:32:46;;;;;;;10.10;5.28;;;12.40;99.90;;;;;;5123867;23;20518;-93
2023/02/17 08:34:56;;;;;;;7.82;5.22;;;12.30;99.90;;;;;;5124761;23;20152;-93
2023/02/17 08:37:11;;;;;;;7.43;4.78;;;12.20;99.90;;;;;;5101847;23;20168;-95
2023/02/17 08:39:15;;;;;;;6.50;3.92;;;12.30;99.90;;;;;;5148990;23;20171;-93
2023/02/17 08:41:35;;;;;;;7.45;4.65;;;12.40;99.90;;;;;;5124722;23;20155;-93
2023/02/17 08:43:36;;;;;;;7.35;4.47;;;12.30;99.90;;;;;;5151001;23;20147;-93
2023/02/17 08:45:39;;;;;;;6.93;4.93;;;12.40;99.90;;;;;;5124767;23;20599;-93
2023/02/17 08:48:04;;;;;;;7.15;5.25;;;12.40;99.90;;;;;;5124481;23;20204;-93
2023/02/17 08:50:05;;;;;;;10.88;5.57;;;12.60;99.90;;;;;;5124545;23;20235;-94
2023/02/17 08:52:06;;;;;;;7.03;5.57;;;12.70;99.90;;;;;;5123705;23;20195;-94
2023/02/17 08:54:11;;;;;;;50.85;36.78;;;12.90;99.90;;;;;;5123943;23;20148;-92
2023/02/17 08:56:12;;;;;;;18.13;13.85;;;13.10;99.90;;;;;;5151507;23;20159;-93
2023/02/17 08:58:13;;;;;;;9.50;6.10;;;13.10;99.90;;;;;;5125394;23;20619;-93
2023/02/17 09:00:15;;;;;;;8.65;5.10;;;13.10;99.90;;;;;;5100817;23;20173;-92
2023/02/17 09:02:16;;;;;;;6.45;4.78;;;13.30;99.90;;;;;;5098930;23;20157;-92
2023/02/17 09:04:17;;;;;;;7.03;6.07;;;13.30;99.90;;;;;;5123648;23;20171;-92
2023/02/17 09:06:20;;;;;;;5.28;4.15;;;13.10;99.90;;;;;;5125418;23;20144;-92
2023/02/17 09:08:32;;;;;;;5.80;4.15;;;13.20;99.90;;;;;;5097812;23;20168;-95
2023/02/17 09:10:39;;;;;;;7.43;5.97;;;13.30;99.90;;;;;;5123614;23;20155;-92
2023/02/17 09:12:40;;;;;;;4.60;3.70;;;13.30;99.90;;;;;;5103232;23;20192;-92
2023/02/17 09:14:44;;;;;;;6.15;4.75;;;13.60;99.90;;;;;;5100654;23;20148;-93
2023/02/17 09:16:44;;;;;;;5.10;4.15;;;13.80;99.90;;;;;;5124780;23;20159;-94
2023/02/17 09:18:46;;;;;;;4.82;3.88;;;13.60;99.90;;;;;;5121883;23;20171;-92
2023/02/17 09:20:48;;;;;;;6.28;5.25;;;13.70;99.90;;;;;;5123595;23;20187;-93
2023/02/17 09:22:49;;;;;;;4.00;2.85;;;13.50;99.90;;;;;;5097530;23;20149;-93
2023/02/17 09:24:53;;;;;;;3.53;2.47;;;13.40;99.90;;;;;;5124756;23;20261;-93
2023/02/17 09:26:56;;;;;;;3.22;2.63;;;13.60;99.90;;;;;;5124725;23;20155;-93
2023/02/17 09:28:57;;;;;;;11.55;3.75;;;13.70;99.90;;;;;;5123663;23;20172;-94
2023/02/17 09:30:58;;;;;;;2.65;1.83;;;13.90;99.90;;;;;;5099845;23;20156;-94
2023/02/17 09:33:04;;;;;;;2.58;2.17;;;14.00;99.90;;;;;;5124404;23;20639;-94
2023/02/17 09:35:06;;;;;;;5.75;4.18;;;14.30;99.90;;;;;;5147882;23;20147;-95
2023/02/17 09:37:16;;;;;;;4.47;1.95;;;14.10;99.90;;;;;;5150427;23;20148;-94
2023/02/17 09:39:18;;;;;;;2.03;1.27;;;14.10;99.90;;;;;;5123905;23;20179;-92
2023/02/17 09:41:46;;;;;;;2.80;1.60;;;14.20;99.90;;;;;;5100502;23;20702;-92
2023/02/17 09:43:47;;;;;;;6.05;2.95;;;14.20;99.90;;;;;;5098646;23;20177;-92
2023/02/17 09:45:59;;;;;;;3.63;2.30;;;14.00;99.90;;;;;;5099132;23;20219;-93
2023/02/17 09:48:10;;;;;;;4.65;2.05;;;14.20;99.90;;;;;;5099832;23;20149;-94
2023/02/17 09:50:18;;;;;;;2.60;1.83;;;14.40;99.90;;;;;;5099490;23;20251;-93
2023/02/17 09:52:41;;;;;;;2.65;1.67;;;14.50;99.90;;;;;;5097321;23;20192;-94
2023/02/17 09:54:46;;;;;;;3.28;1.70;;;14.50;99.90;;;;;;5100261;23;20153;-93
2023/02/17 09:57:07;;;;;;;5.85;1.42;;;14.50;99.90;;;;;;5098338;23;20149;-93
2023/02/17 09:59:42;;;;;;;3.17;1.20;;;14.50;99.90;;;;;;5125823;23;20176;-92
2023/02/17 10:01:49;;;;;;;1.83;0.90;;;14.70;99.90;;;;;;5103784;23;20148;-93
2023/02/17 10:04:06;;;;;;;0.90;0.70;;;14.70;99.90;;;;;;5131726;23;20159;-94
2023/02/17 10:06:12;;;;;;;1.50;0.98;;;14.50;99.90;;;;;;5153339;23;20151;-94
2023/02/17 10:08:23;;;;;;;0.50;0.50;;;14.30;99.90;;;;;;5098491;23;20164;-94
2023/02/17 10:10:33;;;;;;;1.65;0.75;;;14.20;99.90;;;;;;5123648;23;20148;-92
2023/02/17 10:12:47;;;;;;;2.22;0.80;;;14.20;99.90;;;;;;5124667;23;20195;-94
2023/02/17 10:15:15;;;;;;;2.35;0.55;;;14.40;99.90;;;;;;5122185;23;20148;-93
2023/02/17 10:17:32;;;;;;;1.55;0.50;;;14.30;99.90;;;;;;5125412;23;20164;-93
2023/02/17 10:19:44;;;;;;;1.63;0.50;;;14.20;99.90;;;;;;5099036;23;20172;-95
2023/02/17 10:22:15;;;;;;;4.05;0.60;;;14.10;99.90;;;;;;5099970;23;20153;-94
2023/02/17 10:24:17;;;;;;;3.53;0.82;;;14.20;99.90;;;;;;5093422;23;20149;-93
2023/02/17 10:26:33;;;;;;;4.55;0.60;;;14.20;99.90;;;;;;5124342;23;20156;-93
2023/02/17 10:28:50;;;;;;;1.38;0.50;;;14.30;99.90;;;;;;5100025;23;20160;-93
2023/02/17 10:31:08;;;;;;;0.85;0.50;;;14.20;99.90;;;;;;5101576;23;20145;-94
2023/02/17 10:33:11;;;;;;;0.80;0.45;;;14.40;99.90;;;;;;5103089;23;20171;-92
2023/02/17 10:35:21;;;;;;;1.90;0.60;;;14.70;99.90;;;;;;5126649;23;20219;-94
2023/02/17 10:37:39;;;;;;;2.63;0.35;;;14.90;99.90;;;;;;5100811;23;20149;-93
2023/02/17 10:40:08;;;;;;;2.00;0.40;;;14.80;99.90;;;;;;5124958;23;20635;-94
2023/02/17 10:42:20;;;;;;;1.00;0.40;;;14.80;99.90;;;;;;5121206;23;20595;-94
2023/02/17 10:44:23;;;;;;;1.25;0.40;;;14.80;99.90;;;;;;5124844;23;20154;-94
2023/02/17 10:46:30;;;;;;;2.80;0.30;;;14.80;99.90;;;;;;5101016;23;20153;-93
2023/02/17 10:48:52;;;;;;;1.00;0.40;;;14.90;99.90;;;;;;5100482;23;20231;-93
2023/02/17 10:50:58;;;;;;;6.05;0.40;;;14.90;99.90;;;;;;5100544;23;20164;-94
2023/02/17 10:53:23;;;;;;;;;;;;;;;;;;;;;
2023/02/17 10:55:38;;;;;;;0.82;0.40;;;14.50;99.90;;;;;;5154133;23;20148;-94
2023/02/17 10:57:47;;;;;;;0.60;0.35;;;14.50;99.90;;;;;;5125418;23;20158;-93
2023/02/17 10:59:55;;;;;;;2.92;0.30;;;14.50;99.90;;;;;;5149322;23;20163;-94
2023/02/17 11:02:31;;;;;;;4.60;0.40;;;14.50;99.90;;;;;;5150285;23;20162;-95
2023/02/17 11:04:44;;;;;;;1.15;0.35;;;14.30;99.90;;;;;;5028036;23;20170;-93
2023/02/17 11:06:55;;;;;;;2.15;0.20;;;14.00;99.90;;;;;;5050392;23;20155;-93
2023/02/17 11:09:12;;;;;;;5.57;0.57;;;13.90;99.90;;;;;;5027089;23;20294;-92
2023/02/17 11:11:21;;;;;;;1.33;0.40;;;14.00;99.90;;;;;;5075588;23;20249;-93
2023/02/17 11:13:47;;;;;;;1.83;0.47;;;14.30;99.90;;;;;;5082117;23;20137;-95
2023/02/17 11:16:09;;;;;;;1.98;0.30;;;14.40;99.90;;;;;;5100526;23;20635;-94
2023/02/17 11:18:31;;;;;;;1.45;0.30;;;14.50;99.90;;;;;;5123488;23;20625;-94
2023/02/17 11:20:44;;;;;;;1.25;0.30;;;14.80;99.90;;;;;;5097924;23;20176;-95
2023/02/17 11:23:09;;;;;;;3.50;0.32;;;14.90;99.90;;;;;;5100114;23;20178;-95
2023/02/17 11:25:27;;;;;;;1.48;0.30;;;14.70;99.90;;;;;;5149558;23;20155;-93
2023/02/17 11:27:31;;;;;;;0.50;0.20;;;14.70;99.90;;;;;;5150028;23;20159;-92
2023/02/17 11:30:17;;;;;;;0.57;0.30;;;14.90;99.90;;;;;;5123682;23;20175;-96